Terminal Aerodrome Forecast
Issued by NWS Corpus Christi, TX

Home | Current Version | Previous Version | Text Only | Print | Product List | Glossary On
Versions: 1 2 3 4 5 6 7 8 9 10 11 12 13 14 15 16 17 18 19
419
FTUS44 KCRP 171140
TAFVCT
TAF
KVCT 171140Z 1712/1812 VRB03KT 5SM BR VCSH BKN012 OVC020
     FM171500 06006KT P6SM VCSH BKN015 OVC025
      TEMPO 1716/1719 5SM -SHRA OVC015
     FM171900 09007KT P6SM VCSH BKN025 OVC040
      TEMPO 1719/1721 VRB15G25KT 5SM -TSRA OVC025CB
     FM180400 03006KT 5SM -SHRA BR BKN009 OVC015 PROB30 1809/1812
      2SM SHRA BR OVC009=

USA.gov is the U.S. government's official web portal to all federal, state and local government web resources and services.